TimeCST,TemperatureF,Dew PointF,Humidity,Sea Level PressureIn,VisibilityMPH,Wind Direction,Wind SpeedMPH,Gust SpeedMPH,PrecipitationIn,Events,Conditions,WindDirDegrees,DateUTC
12:15 AM,17.2,14.4,88,29.99,10.0,SW,4.6,-,N/A,,Clear,220,2013-02-24 06:15:00
12:35 AM,17.6,14.0,86,30.00,10.0,SW,4.6,-,N/A,,Clear,220,2013-02-24 06:35:00
12:55 AM,17.6,14.0,86,30.00,10.0,SW,3.5,-,N/A,,Clear,220,2013-02-24 06:55:00
1:15 AM,17.4,14.2,87,30.01,10.0,WSW,3.5,-,N/A,,Clear,240,2013-02-24 07:15:00
1:35 AM,16.2,13.8,90,30.01,10.0,Calm,Calm,-,N/A,,Clear,0,2013-02-24 07:35:00
1:55 AM,11.5,9.3,91,30.01,7.0,Calm,Calm,-,N/A,,Clear,0,2013-02-24 07:55:00
2:15 AM,10.6,9.0,93,30.01,5.0,Calm,Calm,-,N/A,,Clear,0,2013-02-24 08:15:00
2:35 AM,10.9,9.1,92,30.00,5.0,Calm,Calm,-,N/A,,Clear,0,2013-02-24 08:35:00
2:55 AM,10.8,9.5,95,30.00,5.0,Calm,Calm,-,N/A,,Clear,0,2013-02-24 08:55:00
3:15 AM,11.7,10.2,94,30.01,5.0,Calm,Calm,-,N/A,,Clear,0,2013-02-24 09:15:00
3:35 AM,11.1,9.5,93,30.01,5.0,Calm,Calm,-,N/A,,Clear,0,2013-02-24 09:35:00
3:55 AM,10.4,8.4,92,30.01,5.0,Calm,Calm,-,N/A,,Clear,0,2013-02-24 09:55:00
4:15 AM,12.0,10.4,93,30.02,5.0,SW,4.6,-,N/A,,Clear,230,2013-02-24 10:15:00
4:35 AM,12.0,10.2,92,30.03,5.0,Calm,Calm,-,N/A,,Clear,0,2013-02-24 10:35:00
4:55 AM,9.5,7.7,92,30.03,5.0,Calm,Calm,-,N/A,,Clear,0,2013-02-24 10:55:00
5:15 AM,9.9,8.1,92,30.03,5.0,Calm,Calm,-,N/A,,Clear,0,2013-02-24 11:15:00
5:35 AM,9.3,7.3,92,30.03,5.0,Calm,Calm,-,N/A,,Clear,0,2013-02-24 11:35:00
5:55 AM,9.3,7.5,92,30.04,5.0,Calm,Calm,-,N/A,,Clear,0,2013-02-24 11:55:00
6:15 AM,10.6,8.6,92,30.04,5.0,Calm,Calm,-,N/A,,Clear,0,2013-02-24 12:15:00
6:35 AM,11.5,9.7,92,30.05,4.0,Calm,Calm,-,N/A,,Clear,0,2013-02-24 12:35:00
6:55 AM,11.3,9.5,92,30.06,4.0,Calm,Calm,-,N/A,,Clear,0,2013-02-24 12:55:00
7:15 AM,11.1,9.5,93,30.07,4.0,Calm,Calm,-,N/A,,Clear,0,2013-02-24 13:15:00
7:35 AM,12.9,11.3,93,30.09,4.0,South,4.6,-,N/A,,Clear,180,2013-02-24 13:35:00
7:55 AM,15.1,13.6,94,30.09,5.0,SSE,3.5,-,N/A,,Clear,150,2013-02-24 13:55:00
8:15 AM,16.7,15.3,94,30.09,5.0,Calm,Calm,-,N/A,,Clear,0,2013-02-24 14:15:00
8:35 AM,18.7,17.1,93,30.09,7.0,SE,3.5,-,N/A,,Clear,140,2013-02-24 14:35:00
8:55 AM,20.8,18.1,89,30.09,10.0,Calm,Calm,-,N/A,,Clear,0,2013-02-24 14:55:00
9:15 AM,23.2,17.4,79,30.10,7.0,Calm,Calm,-,N/A,,Clear,0,2013-02-24 15:15:00
9:35 AM,25.3,17.6,72,30.09,10.0,Calm,Calm,-,N/A,,Clear,0,2013-02-24 15:35:00
9:55 AM,26.4,18.1,71,30.10,10.0,Calm,Calm,-,N/A,,Clear,0,2013-02-24 15:55:00
10:15 AM,26.6,18.7,72,30.10,10.0,SE,4.6,-,N/A,,Clear,140,2013-02-24 16:15:00
10:35 AM,28.6,19.8,70,30.10,10.0,SSE,3.5,-,N/A,,Clear,150,2013-02-24 16:35:00
10:55 AM,30.0,20.1,67,30.10,10.0,SSE,3.5,-,N/A,,Clear,160,2013-02-24 16:55:00
11:15 AM,31.1,20.8,66,30.11,10.0,South,3.5,-,N/A,,Clear,170,2013-02-24 17:15:00
11:35 AM,32.0,20.7,63,30.11,10.0,SE,4.6,-,N/A,,Clear,140,2013-02-24 17:35:00
11:55 AM,32.0,21.6,65,30.11,10.0,South,4.6,-,N/A,,Clear,170,2013-02-24 17:55:00
12:15 PM,32.5,21.9,65,30.10,10.0,SSE,3.5,-,N/A,,Clear,150,2013-02-24 18:15:00
12:35 PM,33.1,22.1,64,30.10,10.0,SSE,5.8,-,N/A,,Clear,150,2013-02-24 18:35:00
12:55 PM,33.3,22.1,64,30.10,10.0,SSE,4.6,-,N/A,,Clear,160,2013-02-24 18:55:00
1:15 PM,33.8,22.3,63,30.09,10.0,SSE,6.9,-,N/A,,Clear,160,2013-02-24 19:15:00
1:35 PM,34.3,21.9,60,30.09,10.0,SSE,5.8,-,N/A,,Clear,160,2013-02-24 19:35:00
1:55 PM,34.7,21.7,59,30.09,10.0,SSE,5.8,-,N/A,,Clear,160,2013-02-24 19:55:00
2:15 PM,35.4,22.3,59,30.08,10.0,South,6.9,-,N/A,,Clear,170,2013-02-24 20:15:00
2:35 PM,36.0,22.5,58,30.08,10.0,SSE,6.9,-,N/A,,Clear,160,2013-02-24 20:35:00
2:55 PM,36.0,22.3,58,30.08,10.0,SSE,5.8,-,N/A,,Clear,160,2013-02-24 20:55:00
3:15 PM,36.3,23.2,59,30.08,10.0,SSE,5.8,-,N/A,,Clear,160,2013-02-24 21:15:00
3:35 PM,36.1,23.4,60,30.07,10.0,SSE,6.9,-,N/A,,Clear,160,2013-02-24 21:35:00
3:55 PM,36.5,24.1,61,30.07,10.0,SSE,4.6,-,N/A,,Clear,160,2013-02-24 21:55:00
4:15 PM,36.5,25.2,64,30.07,10.0,SE,3.5,-,N/A,,Clear,140,2013-02-24 22:15:00
4:35 PM,36.5,25.3,64,30.06,10.0,SE,3.5,-,N/A,,Clear,130,2013-02-24 22:35:00
4:55 PM,35.6,25.0,65,30.06,10.0,ESE,4.6,-,N/A,,Clear,110,2013-02-24 22:55:00
5:15 PM,34.7,24.8,67,30.06,10.0,East,5.8,-,N/A,,Clear,100,2013-02-24 23:15:00
5:35 PM,33.6,24.8,70,30.06,10.0,ESE,5.8,-,N/A,,Clear,110,2013-02-24 23:35:00
5:55 PM,32.9,24.6,72,30.06,10.0,ESE,3.5,-,N/A,,Clear,110,2013-02-24 23:55:00
6:15 PM,32.0,24.8,75,30.08,10.0,ESE,4.6,-,N/A,,Clear,110,2013-02-25 00:15:00
6:35 PM,31.6,24.8,76,30.08,10.0,East,4.6,-,N/A,,Clear,100,2013-02-25 00:35:00
6:55 PM,30.7,24.8,79,30.08,10.0,East,4.6,-,N/A,,Clear,90,2013-02-25 00:55:00
7:15 PM,30.9,24.8,78,30.09,10.0,East,4.6,-,N/A,,Clear,100,2013-02-25 01:15:00
7:35 PM,30.4,24.6,79,30.09,10.0,ESE,3.5,-,N/A,,Clear,110,2013-02-25 01:35:00
7:55 PM,29.7,24.1,80,30.09,10.0,East,4.6,-,N/A,,Clear,100,2013-02-25 01:55:00
8:15 PM,29.7,24.1,80,30.09,10.0,East,3.5,-,N/A,,Clear,100,2013-02-25 02:15:00
8:35 PM,29.3,24.3,81,30.10,10.0,East,3.5,-,N/A,,Clear,100,2013-02-25 02:35:00
8:55 PM,29.3,24.3,81,30.10,10.0,East,3.5,-,N/A,,Clear,100,2013-02-25 02:55:00
9:15 PM,29.1,24.4,83,30.10,10.0,Calm,Calm,-,N/A,,Clear,0,2013-02-25 03:15:00
9:35 PM,29.1,24.8,84,30.10,10.0,East,4.6,-,N/A,,Clear,100,2013-02-25 03:35:00
9:55 PM,28.4,24.4,85,30.10,10.0,East,4.6,-,N/A,,Clear,100,2013-02-25 03:55:00
10:15 PM,28.4,24.4,85,30.09,10.0,ESE,4.6,-,N/A,,Clear,110,2013-02-25 04:15:00
10:35 PM,28.2,24.4,86,30.10,10.0,ESE,3.5,-,N/A,,Clear,120,2013-02-25 04:35:00
10:55 PM,27.9,24.4,87,30.10,10.0,ESE,3.5,-,N/A,,Clear,120,2013-02-25 04:55:00
11:15 PM,27.5,24.4,88,30.10,10.0,East,3.5,-,N/A,,Clear,100,2013-02-25 05:15:00
11:35 PM,27.1,23.9,88,30.10,10.0,ESE,4.6,-,N/A,,Clear,110,2013-02-25 05:35:00
11:55 PM,26.6,24.3,91,30.09,7.0,East,3.5,-,N/A,,Clear,100,2013-02-25 05:55:00